createdAt,value
2019-05-11T00:02:18.103Z,4.17
2019-05-11T00:04:48.526Z,3.67
2019-05-11T00:07:20.192Z,4.73
2019-05-11T00:09:57.956Z,6.63
2019-05-11T00:12:23.130Z,4.70
2019-05-11T00:14:53.787Z,6.23
2019-05-11T00:17:24.440Z,3.90
2019-05-11T00:19:55.165Z,2.90
2019-05-11T00:22:26.027Z,2.77
2019-05-11T00:24:56.701Z,3.53
2019-05-11T00:27:27.476Z,4.27
2019-05-11T00:29:58.325Z,8.47
2019-05-11T00:32:28.863Z,12.43
2019-05-11T00:34:59.281Z,23.80
2019-05-11T00:37:29.747Z,20.20
2019-05-11T00:40:13.232Z,5.20
2019-05-11T00:42:32.926Z,7.13
2019-05-11T00:45:03.812Z,3.47
2019-05-11T00:47:35.821Z,9.77
2019-05-11T00:50:06.959Z,4.50
2019-05-11T00:52:37.702Z,5.23
2019-05-11T00:55:08.589Z,7.67
2019-05-11T00:57:39.382Z,4.93
2019-05-11T01:00:11.497Z,24.70
2019-05-11T01:02:41.942Z,6.90
2019-05-11T01:05:12.601Z,7.67
2019-05-11T01:07:43.589Z,11.67
2019-05-11T01:10:25.277Z,41.67
2019-05-11T01:12:47.160Z,25.60
2019-05-11T01:15:18.052Z,32.63
2019-05-11T01:17:48.735Z,26.67
2019-05-11T01:20:20.139Z,19.70
2019-05-11T01:22:50.953Z,17.30
2019-05-11T01:25:21.587Z,20.43
2019-05-11T01:27:52.389Z,20.63
2019-05-11T01:30:23.284Z,5.73
2019-05-11T01:32:53.724Z,6.37
2019-05-11T01:35:24.152Z,6.57
2019-05-11T01:37:54.911Z,32.77
2019-05-11T01:40:25.506Z,15.80
2019-05-11T01:42:56.285Z,16.50
2019-05-11T01:45:27.009Z,15.73
2019-05-11T01:48:00.148Z,57.07
2019-05-11T01:50:30.916Z,28.03
2019-05-11T01:53:01.726Z,27.33
2019-05-11T01:55:32.378Z,23.30
2019-05-11T01:58:03.269Z,4.00
2019-05-11T02:00:34.202Z,5.70
2019-05-11T02:03:04.691Z,4.80
2019-05-11T02:05:35.118Z,4.40
2019-05-11T02:08:06.026Z,3.63
2019-05-11T02:10:36.727Z,3.83
2019-05-11T02:13:07.380Z,3.90
2019-05-11T02:15:38.093Z,5.43
2019-05-11T02:18:09.074Z,9.07
2019-05-11T02:20:39.778Z,14.27
2019-05-11T02:23:10.764Z,4.20
2019-05-11T02:25:41.516Z,20.93
2019-05-11T02:28:12.285Z,8.30
2019-05-11T02:30:42.963Z,3.93
2019-05-11T02:33:13.434Z,3.93
2019-05-11T02:35:43.849Z,3.47
2019-05-11T02:38:14.700Z,20.10
2019-05-11T02:40:46.582Z,3.83
2019-05-11T02:43:17.423Z,3.47
2019-05-11T02:45:48.354Z,3.13
2019-05-11T02:48:19.018Z,14.27
2019-05-11T02:50:50.702Z,3.60
2019-05-11T02:53:22.399Z,3.50
2019-05-11T02:55:53.289Z,3.23
2019-05-11T02:58:24.120Z,4.30
2019-05-11T03:00:54.559Z,35.10
2019-05-11T03:03:25.003Z,6.50
2019-05-11T03:05:55.420Z,6.67
2019-05-11T03:08:26.440Z,9.73
2019-05-11T03:10:57.131Z,7.17
2019-05-11T03:13:28.008Z,10.33
2019-05-11T03:15:58.703Z,10.10
2019-05-11T03:18:29.554Z,4.80
2019-05-11T03:21:00.279Z,5.03
2019-05-11T03:23:30.894Z,6.90
2019-05-11T03:26:01.499Z,7.77
2019-05-11T03:28:32.096Z,7.20
2019-05-11T03:31:03.520Z,5.17
2019-05-11T03:33:34.209Z,4.57
2019-05-11T03:36:04.664Z,17.07
2019-05-11T03:38:35.368Z,15.03
2019-05-11T03:41:06.456Z,33.97
2019-05-11T03:43:37.195Z,31.33
2019-05-11T03:46:07.826Z,22.30
2019-05-11T03:48:38.583Z,25.53
2019-05-11T03:51:09.340Z,37.03
2019-05-11T03:53:40.051Z,34.93
2019-05-11T03:56:10.697Z,30.63
2019-05-11T03:58:41.356Z,5.20
2019-05-11T04:01:11.818Z,5.30
2019-05-11T04:03:42.752Z,5.60
2019-05-11T04:06:13.409Z,6.03
2019-05-11T04:08:43.917Z,4.53
2019-05-11T04:11:14.663Z,6.17
2019-05-11T04:13:45.466Z,5.90
2019-05-11T04:16:15.804Z,5.43
2019-05-11T04:18:46.484Z,4.03
2019-05-11T04:21:16.795Z,4.30
2019-05-11T04:23:47.497Z,4.90
2019-05-11T04:26:17.829Z,5.03
2019-05-11T04:28:48.139Z,5.90
2019-05-11T04:31:18.898Z,4.23
2019-05-11T04:33:49.606Z,4.33
2019-05-11T04:36:20.162Z,4.00
2019-05-11T04:38:50.768Z,4.07
2019-05-11T04:41:21.487Z,5.67
2019-05-11T04:43:51.855Z,4.00
2019-05-11T04:46:22.289Z,5.37
2019-05-11T04:48:53.161Z,4.20
2019-05-11T04:51:23.485Z,3.67
2019-05-11T04:53:54.026Z,3.90
2019-05-11T04:56:24.484Z,3.33
2019-05-11T04:58:55.235Z,3.93
2019-05-11T05:01:25.692Z,3.67
2019-05-11T05:04:13.440Z,4.40
2019-05-11T05:06:31.240Z,4.13
2019-05-11T05:09:03.691Z,4.00
2019-05-11T05:11:36.814Z,3.80
2019-05-11T05:14:08.375Z,4.63
2019-05-11T05:16:38.565Z,3.87
2019-05-11T05:19:08.925Z,3.33
2019-05-11T05:21:39.411Z,3.97
2019-05-11T05:24:10.203Z,3.50
2019-05-11T05:26:40.647Z,4.13
2019-05-11T05:29:11.224Z,3.83
2019-05-11T05:31:41.636Z,4.90
2019-05-11T05:34:11.954Z,4.67
2019-05-11T05:36:42.757Z,3.77
2019-05-11T05:39:13.095Z,4.27
2019-05-11T05:41:43.456Z,4.13
2019-05-11T05:44:14.235Z,5.17
2019-05-11T05:46:47.222Z,4.23
2019-05-11T05:49:17.733Z,4.70
2019-05-11T05:51:48.554Z,5.23
2019-05-11T05:54:19.330Z,3.40
2019-05-11T05:56:50.082Z,4.27
2019-05-11T05:59:20.450Z,4.60
2019-05-11T06:01:50.789Z,3.90
2019-05-11T06:04:21.613Z,4.93
2019-05-11T06:06:52.085Z,4.57
2019-05-11T06:09:22.694Z,8.03
2019-05-11T06:11:53.823Z,4.97
2019-05-11T06:14:24.221Z,5.03
2019-05-11T06:16:54.519Z,3.63
2019-05-11T06:19:25.358Z,4.47
2019-05-11T06:21:56.118Z,3.80
2019-05-11T06:24:26.497Z,3.43
2019-05-11T06:26:56.995Z,6.33
2019-05-11T06:29:27.333Z,4.43
2019-05-11T06:31:57.779Z,6.10
2019-05-11T06:34:28.465Z,5.30
2019-05-11T06:36:58.805Z,3.93
2019-05-11T06:39:29.574Z,3.20
2019-05-11T06:42:00.315Z,15.77
2019-05-11T06:44:30.867Z,2.93
2019-05-11T06:47:01.369Z,3.70
2019-05-11T06:49:32.236Z,4.17
2019-05-11T06:52:02.538Z,7.43
2019-05-11T06:54:33.094Z,32.57
2019-05-11T06:57:03.824Z,4.97
2019-05-11T06:59:34.125Z,3.47
2019-05-11T07:02:04.462Z,4.77
2019-05-11T07:04:35.081Z,4.33
2019-05-11T07:07:05.624Z,3.43
2019-05-11T07:09:35.933Z,4.03
2019-05-11T07:12:06.778Z,5.07
2019-05-11T07:14:37.469Z,41.40
2019-05-11T07:17:07.864Z,51.93
2019-05-11T07:19:38.670Z,73.37
2019-05-11T07:22:09.506Z,61.17
2019-05-11T07:24:39.964Z,68.50
2019-05-11T07:27:10.461Z,37.20
2019-05-11T07:29:40.915Z,55.13
2019-05-11T07:32:21.968Z,142.73
2019-05-11T07:34:43.576Z,40.67
2019-05-11T07:37:13.945Z,47.27
2019-05-11T07:39:44.585Z,38.97
2019-05-11T07:42:15.014Z,59.73
2019-05-11T07:44:47.942Z,92.17
2019-05-11T07:47:18.706Z,104.57
2019-05-11T07:49:49.778Z,55.73
2019-05-11T07:52:20.242Z,61.20
2019-05-11T07:54:52.977Z,47.90
2019-05-11T07:57:28.244Z,92.87
2019-05-11T07:59:58.109Z,44.70
2019-05-11T08:02:31.934Z,45.20
2019-05-11T08:05:01.940Z,47.40
2019-05-11T08:07:32.450Z,44.10
2019-05-11T08:10:03.279Z,42.33
2019-05-11T08:12:33.638Z,49.87
2019-05-11T08:15:11.690Z,33.23
2019-05-11T08:17:38.111Z,36.77
2019-05-11T08:20:08.973Z,148.07
2019-05-11T08:22:39.391Z,47.07
2019-05-11T08:25:10.386Z,60.07
2019-05-11T08:27:41.838Z,84.50
2019-05-11T08:30:12.931Z,53.13
2019-05-11T08:32:43.464Z,33.37
2019-05-11T08:35:14.705Z,40.03
2019-05-11T08:37:47.713Z,29.67
2019-05-11T08:40:18.627Z,24.17
2019-05-11T08:42:48.977Z,52.67
2019-05-11T08:45:24.479Z,29.43
2019-05-11T08:47:52.178Z,41.97
2019-05-11T08:50:22.489Z,53.17
2019-05-11T08:52:53.267Z,42.90
2019-05-11T08:55:23.778Z,63.97
2019-05-11T08:57:54.132Z,40.27
2019-05-11T09:00:24.907Z,21.37
2019-05-11T09:02:58.018Z,20.80
2019-05-11T09:05:28.163Z,21.40
2019-05-11T09:07:58.820Z,35.07
2019-05-11T09:10:29.130Z,22.67
2019-05-11T09:12:59.904Z,20.70
2019-05-11T09:15:36.928Z,21.50
2019-05-11T09:18:02.587Z,20.37
2019-05-11T09:20:32.980Z,21.57
2019-05-11T09:23:03.489Z,20.87
2019-05-11T09:25:33.956Z,22.13
2019-05-11T09:28:04.435Z,16.87
2019-05-11T09:30:35.086Z,17.40
2019-05-11T09:33:05.392Z,14.20
2019-05-11T09:35:47.577Z,15.97
2019-05-11T09:38:08.611Z,16.83
2019-05-11T09:40:38.950Z,18.77
2019-05-11T09:43:09.478Z,17.77
2019-05-11T09:45:48.093Z,16.63
2019-05-11T09:48:11.902Z,15.07
2019-05-11T09:50:42.285Z,15.53
2019-05-11T09:53:12.576Z,20.23
2019-05-11T09:55:43.023Z,17.63
2019-05-11T09:58:13.776Z,16.17
2019-05-11T10:00:44.108Z,17.90
2019-05-11T10:03:14.518Z,19.83
2019-05-11T10:05:45.277Z,18.70
2019-05-11T10:08:15.626Z,23.37
2019-05-11T10:10:48.647Z,13.20
2019-05-11T10:13:18.762Z,19.13
2019-05-11T10:16:03.786Z,15.30
2019-05-11T10:18:24.259Z,16.67
2019-05-11T10:20:53.330Z,14.23
2019-05-11T10:23:23.625Z,16.07
2019-05-11T10:25:54.347Z,12.60
2019-05-11T10:28:24.820Z,13.87
2019-05-11T10:30:57.684Z,17.20
2019-05-11T10:33:28.273Z,11.93
2019-05-11T10:36:02.769Z,13.70
2019-05-11T10:38:31.007Z,15.17
2019-05-11T10:41:01.638Z,25.80
2019-05-11T10:43:32.328Z,18.87
2019-05-11T10:46:15.986Z,18.10
2019-05-11T10:48:34.832Z,10.63
2019-05-11T10:51:05.186Z,9.37
2019-05-11T10:53:38.270Z,12.87
2019-05-11T10:56:08.856Z,14.33
2019-05-11T10:58:39.195Z,12.27
2019-05-11T11:01:09.875Z,18.27
2019-05-11T11:03:40.514Z,10.23
2019-05-11T11:06:10.892Z,15.10
2019-05-11T11:08:41.435Z,65.13
2019-05-11T11:11:12.125Z,12.53
2019-05-11T11:13:43.382Z,11.10
2019-05-11T11:16:13.714Z,10.00
2019-05-11T11:18:44.493Z,10.70
2019-05-11T11:21:14.949Z,10.93
2019-05-11T11:23:45.242Z,10.60
2019-05-11T11:26:18.231Z,11.60
2019-05-11T11:28:48.171Z,9.47
2019-05-11T11:31:18.914Z,8.43
2019-05-11T11:33:49.641Z,12.47
2019-05-11T11:36:20.258Z,11.07
2019-05-11T11:38:50.563Z,13.17
2019-05-11T11:41:21.233Z,30.53
2019-05-11T11:43:51.613Z,17.70
2019-05-11T11:46:22.006Z,9.70
2019-05-11T11:48:52.617Z,10.30
2019-05-11T11:51:23.933Z,8.03
2019-05-11T11:53:54.486Z,8.63
2019-05-11T11:56:25.208Z,10.03
2019-05-11T11:58:57.792Z,9.63
2019-05-11T12:01:28.243Z,12.17
2019-05-11T12:03:59.105Z,11.63
2019-05-11T12:06:29.477Z,11.97
2019-05-11T12:08:59.934Z,9.73
2019-05-11T12:11:30.663Z,10.27
2019-05-11T12:14:00.941Z,8.90
2019-05-11T12:16:31.289Z,9.10
2019-05-11T12:19:05.099Z,8.70
2019-05-11T12:21:34.045Z,11.03
2019-05-11T12:24:04.483Z,7.73
2019-05-11T12:26:34.805Z,8.07
2019-05-11T12:29:05.318Z,9.50
2019-05-11T12:31:37.558Z,18.87
2019-05-11T12:34:08.817Z,9.30
2019-05-11T12:36:39.497Z,11.00
2019-05-11T12:39:09.899Z,9.10
2019-05-11T12:41:40.313Z,10.08
2019-05-11T12:44:10.592Z,7.53
2019-05-11T12:46:41.209Z,9.38
2019-05-11T12:49:11.825Z,9.53
2019-05-11T12:51:42.241Z,8.08
2019-05-11T12:54:12.928Z,7.00
2019-05-11T12:56:43.350Z,9.75
2019-05-11T12:59:14.028Z,12.55
2019-05-11T13:01:44.365Z,13.27
2019-05-11T13:04:14.714Z,13.37
2019-05-11T13:06:45.334Z,12.13
2019-05-11T13:09:18.128Z,11.43
2019-05-11T13:11:48.326Z,7.25
2019-05-11T13:14:19.711Z,9.43
2019-05-11T13:16:50.394Z,8.55
2019-05-11T13:19:20.700Z,6.05
2019-05-11T13:21:51.254Z,8.43
2019-05-11T13:24:21.940Z,8.60
2019-05-11T13:26:52.290Z,11.03
2019-05-11T13:29:22.809Z,12.33
2019-05-11T13:31:53.158Z,15.50
2019-05-11T13:34:23.992Z,16.65
2019-05-11T13:36:54.649Z,17.70
2019-05-11T13:39:24.957Z,15.20
2019-05-11T13:41:57.817Z,13.28
2019-05-11T13:44:28.120Z,13.18
2019-05-11T13:46:58.818Z,13.22
2019-05-11T13:49:32.333Z,10.15
2019-05-11T13:52:01.881Z,14.93
2019-05-11T13:54:32.255Z,11.60
2019-05-11T13:57:02.572Z,16.20
2019-05-11T13:59:33.248Z,12.53
2019-05-11T14:02:04.064Z,11.65
2019-05-11T14:04:34.492Z,11.20
2019-05-11T14:07:07.891Z,14.23
2019-05-11T14:09:38.150Z,11.83
2019-05-11T14:12:08.816Z,9.00
2019-05-11T14:14:39.187Z,14.00
2019-05-11T14:17:09.581Z,12.50
2019-05-11T14:19:40.408Z,15.48
2019-05-11T14:22:10.708Z,14.43
2019-05-11T14:24:41.063Z,13.62
2019-05-11T14:27:11.884Z,16.60
2019-05-11T14:29:42.507Z,13.95
2019-05-11T14:32:14.328Z,19.02
2019-05-11T14:34:44.658Z,12.80
2019-05-11T14:37:14.993Z,15.35
2019-05-11T14:39:48.062Z,11.83
2019-05-11T14:42:22.184Z,12.37
2019-05-11T14:44:49.981Z,18.23
2019-05-11T14:47:20.776Z,18.45
2019-05-11T14:49:51.243Z,18.98
2019-05-11T14:52:22.779Z,14.98
2019-05-11T14:54:53.378Z,14.68
2019-05-11T14:57:24.058Z,17.48
2019-05-11T14:59:54.399Z,13.35
2019-05-11T15:02:48.574Z,12.93
2019-05-11T15:05:19.426Z,18.67
2019-05-11T15:07:52.806Z,13.22
2019-05-11T15:10:23.633Z,12.65
2019-05-11T15:12:53.931Z,16.82
2019-05-11T15:15:27.947Z,20.57
2019-05-11T15:17:59.166Z,15.13
2019-05-11T15:20:29.505Z,21.15
2019-05-11T15:23:00.234Z,19.80
2019-05-11T15:25:31.009Z,18.25
2019-05-11T15:28:01.369Z,18.67
2019-05-11T15:30:31.994Z,15.28
2019-05-11T15:33:02.410Z,13.10
2019-05-11T15:35:32.720Z,13.03
2019-05-11T15:38:03.068Z,12.95
2019-05-11T15:40:33.836Z,12.18
2019-05-11T15:43:04.140Z,12.15
2019-05-11T15:45:34.604Z,14.05
2019-05-11T15:48:05.493Z,16.52
2019-05-11T15:50:39.770Z,12.13
2019-05-11T15:53:08.885Z,13.85
2019-05-11T15:55:42.436Z,14.45
2019-05-11T15:58:11.942Z,15.53
2019-05-11T16:00:42.286Z,14.85
2019-05-11T16:03:12.672Z,14.43
2019-05-11T16:05:43.171Z,11.97
2019-05-11T16:08:13.524Z,9.25
2019-05-11T16:10:45.117Z,15.10
2019-05-11T16:13:17.896Z,7.85
2019-05-11T16:15:49.090Z,9.83
2019-05-11T16:18:19.823Z,8.98
2019-05-11T16:20:50.543Z,6.47
2019-05-11T16:23:21.165Z,9.80
2019-05-11T16:25:52.832Z,7.33
2019-05-11T16:28:23.217Z,7.75
2019-05-11T16:30:53.612Z,9.23
2019-05-11T16:33:24.009Z,10.43
2019-05-11T16:35:54.424Z,17.07
2019-05-11T16:38:24.794Z,17.03
2019-05-11T16:40:55.395Z,11.07
2019-05-11T16:43:28.159Z,14.67
2019-05-11T16:45:58.543Z,10.93
2019-05-11T16:48:28.832Z,15.80
2019-05-11T16:50:59.433Z,14.83
2019-05-11T16:53:30.128Z,17.33
2019-05-11T16:56:00.554Z,13.73
2019-05-11T16:58:30.878Z,17.33
2019-05-11T17:01:01.530Z,13.73
2019-05-11T17:03:31.796Z,15.00
2019-05-11T17:06:02.184Z,11.53
2019-05-11T17:08:32.898Z,11.40
2019-05-11T17:11:03.561Z,12.90
2019-05-11T17:13:34.006Z,18.83
2019-05-11T17:16:04.526Z,15.97
2019-05-11T17:18:34.830Z,12.53
2019-05-11T17:21:07.603Z,12.67
2019-05-11T17:23:38.434Z,11.83
2019-05-11T17:26:09.026Z,14.90
2019-05-11T17:28:40.674Z,12.03
2019-05-11T17:31:11.031Z,13.27
2019-05-11T17:33:41.305Z,14.73
2019-05-11T17:36:13.077Z,13.30
2019-05-11T17:38:43.835Z,11.47
2019-05-11T17:41:14.156Z,13.80
2019-05-11T17:43:44.915Z,12.97
2019-05-11T17:46:15.710Z,13.13
2019-05-11T17:48:46.071Z,14.90
2019-05-11T17:51:21.848Z,15.23
2019-05-11T17:53:49.070Z,18.90
2019-05-11T17:56:19.391Z,21.50
2019-05-11T17:58:49.727Z,25.57
2019-05-11T18:01:20.138Z,26.70
2019-05-11T18:03:50.438Z,33.00
2019-05-11T18:06:20.825Z,33.23
2019-05-11T18:08:51.550Z,31.13
2019-05-11T18:11:22.088Z,27.57
2019-05-11T18:13:52.484Z,16.07
2019-05-11T18:16:23.105Z,17.90
2019-05-11T18:18:54.534Z,19.93
2019-05-11T18:21:25.091Z,22.13
2019-05-11T18:23:56.392Z,28.07
2019-05-11T18:26:28.601Z,22.93
2019-05-11T18:28:59.113Z,22.20
2019-05-11T18:31:29.443Z,24.47
2019-05-11T18:33:59.735Z,21.17
2019-05-11T18:36:30.545Z,19.27
2019-05-11T18:39:01.084Z,20.83
2019-05-11T18:41:32.796Z,21.27
2019-05-11T18:44:03.433Z,28.40
2019-05-11T18:46:34.122Z,26.63
2019-05-11T18:49:05.795Z,30.57
2019-05-11T18:51:37.804Z,31.27
2019-05-11T18:54:09.237Z,31.57
2019-05-11T18:56:40.029Z,38.43
2019-05-11T18:59:10.400Z,32.50
2019-05-11T19:01:40.695Z,38.97
2019-05-11T19:04:11.109Z,49.73
2019-05-11T19:06:41.820Z,37.73
2019-05-11T19:09:12.206Z,19.03
2019-05-11T19:11:43.084Z,27.17
2019-05-11T19:14:13.887Z,38.63
2019-05-11T19:16:44.304Z,42.93
2019-05-11T19:19:14.915Z,39.40
2019-05-11T19:21:45.243Z,33.33
2019-05-11T19:24:15.844Z,55.77
2019-05-11T19:26:48.113Z,65.87
2019-05-11T19:29:18.531Z,67.17
2019-05-11T19:31:49.001Z,87.17
2019-05-11T19:34:20.397Z,69.80
2019-05-11T19:36:50.937Z,59.37
2019-05-11T19:39:21.396Z,58.80
2019-05-11T19:41:52.261Z,61.20
2019-05-11T19:44:22.557Z,54.70
2019-05-11T19:46:53.021Z,70.37
2019-05-11T19:49:23.565Z,70.20
2019-05-11T19:51:54.004Z,98.17
2019-05-11T19:54:24.404Z,115.73
2019-05-11T19:56:55.040Z,117.63
2019-05-11T19:59:25.375Z,116.27
2019-05-11T20:01:59.797Z,105.47
2019-05-11T20:04:28.461Z,141.03
2019-05-11T20:06:59.018Z,125.13
2019-05-11T20:09:29.376Z,115.67
2019-05-11T20:12:00.175Z,130.53
2019-05-11T20:14:31.791Z,139.13
2019-05-11T20:17:02.083Z,136.67
2019-05-11T20:19:32.570Z,143.97
2019-05-11T20:22:04.397Z,141.27
2019-05-11T20:24:35.333Z,133.70
2019-05-11T20:27:07.954Z,137.43
2019-05-11T20:29:38.566Z,136.63
2019-05-11T20:32:08.986Z,135.77
2019-05-11T20:34:39.606Z,139.57
2019-05-11T20:37:09.982Z,125.50
2019-05-11T20:39:40.609Z,129.93
2019-05-11T20:42:11.397Z,127.53
2019-05-11T20:44:41.796Z,139.23
2019-05-11T20:47:12.159Z,153.63
2019-05-11T20:49:42.948Z,127.80
2019-05-11T20:52:13.378Z,161.10
2019-05-11T20:54:44.214Z,134.20
2019-05-11T20:57:14.600Z,108.60
2019-05-11T20:59:44.982Z,135.60
2019-05-11T21:02:15.374Z,113.37
2019-05-11T21:04:45.840Z,120.33
2019-05-11T21:07:16.192Z,127.40
2019-05-11T21:09:48.371Z,147.23
2019-05-11T21:12:18.774Z,126.73
2019-05-11T21:14:49.128Z,108.60
2019-05-11T21:17:19.934Z,110.80
2019-05-11T21:19:51.448Z,98.63
2019-05-11T21:22:21.903Z,117.37
2019-05-11T21:24:52.717Z,127.03
2019-05-11T21:27:23.120Z,93.57
2019-05-11T21:29:53.559Z,79.73
2019-05-11T21:32:23.844Z,72.73
2019-05-11T21:34:54.272Z,57.60
2019-05-11T21:37:24.946Z,63.47
2019-05-11T21:39:57.677Z,76.33
2019-05-11T21:42:28.030Z,59.33
2019-05-11T21:44:58.632Z,43.23
2019-05-11T21:47:29.213Z,49.27
2019-05-11T21:49:59.515Z,51.73
2019-05-11T21:52:30.216Z,50.83
2019-05-11T21:55:01.047Z,52.70
2019-05-11T21:57:31.398Z,50.60
2019-05-11T22:00:01.773Z,50.67
2019-05-11T22:02:33.786Z,50.30
2019-05-11T22:05:04.689Z,42.37
2019-05-11T22:07:35.159Z,51.13
2019-05-11T22:10:06.014Z,46.90
2019-05-11T22:12:38.716Z,49.00
2019-05-11T22:15:11.040Z,45.87
2019-05-11T22:17:41.389Z,54.07
2019-05-11T22:20:12.033Z,56.70
2019-05-11T22:22:42.800Z,64.63
2019-05-11T22:25:13.240Z,82.07
2019-05-11T22:27:43.596Z,77.63
2019-05-11T22:30:14.436Z,62.20
2019-05-11T22:32:44.865Z,65.37
2019-05-11T22:35:18.027Z,69.13
2019-05-11T22:37:49.048Z,59.67
2019-05-11T22:40:20.124Z,70.03
2019-05-11T22:42:50.828Z,74.07
2019-05-11T22:45:21.177Z,62.43
2019-05-11T22:47:51.519Z,79.60
2019-05-11T22:50:22.246Z,77.47
2019-05-11T22:52:53.558Z,95.43
2019-05-11T22:55:23.867Z,144.20
2019-05-11T22:57:54.552Z,128.17
2019-05-11T23:00:59.516Z,148.90
2019-05-11T23:03:28.265Z,121.27
2019-05-11T23:05:59.024Z,123.13
2019-05-11T23:08:29.428Z,149.93
2019-05-11T23:11:00.290Z,88.33
2019-05-11T23:13:30.641Z,113.93
2019-05-11T23:16:00.947Z,112.33
2019-05-11T23:18:31.608Z,118.27
2019-05-11T23:21:02.203Z,126.83
2019-05-11T23:23:32.617Z,142.50
2019-05-11T23:26:03.317Z,248.33
2019-05-11T23:28:33.752Z,295.83
2019-05-11T23:31:05.186Z,289.17
2019-05-11T23:33:38.283Z,295.23
2019-05-11T23:36:08.420Z,274.87
2019-05-11T23:38:38.900Z,231.33
2019-05-11T23:41:22.626Z,433.13
2019-05-11T23:43:41.517Z,390.43
2019-05-11T23:46:12.160Z,266.10
2019-05-11T23:48:42.822Z,287.77
2019-05-11T23:51:13.129Z,279.60
2019-05-11T23:53:43.803Z,276.47
2019-05-11T23:56:14.196Z,296.30
2019-05-11T23:58:44.555Z,295.43
